Accueil
METAR-TAF:

METAR-TAF

Aéroports :

Schwäbisch Hall, Allemagne

latitude: 49-07-06N, longitude: 9-47-02E, altitude: 398 m

Observation

Le bulletin a été fait il y a 33 minutes, à 18:50 UTC
Vent 5 kt de ouest
Température 22°C
Humidité 65%
Pression 1010 hPa
Visibilité 10 km ou plus

METAR: EDTY 301850Z AUTO 27005KT 9999 // SCT049/// SCT066/// BKN170/// 22/15 Q1010

Heure: 21:23 (19:23 UTC)

Prévision

Le bulletin a été fait il y a 2 heures et 23 minutes, à 17:00 UTC
Prévision valable du 30 à 18 UTC au 31 à 03 UTC
Vent 7 kt de ouest/sud-ouest
Visibilité 10 km ou plus
pas de nuages en-dessous de 1500 mètres et pas de cumulonimbus.
Probabilité 30% :
Temporairement
du 30 à 18 UTC au 30 à 21 UTC
Vent 20 kt de ouest/sud-ouest avec des rafales jusqu'à 35 kt
Nuages fragmentés à une hauteur de 4000 ft, Cumulonimbus.
orage, pluie

TAF: EDTY 301700Z 3018/3103 25007KT CAVOK PROB30 TEMPO 3018/3021 25020G35KT TSRA BKN040CB

Observations et prévisions météorologiques de plus de 4000 aéroports (messages METAR et TAF).

Les stations disponibles sont représentées par des disques jaunes et rouges sur la carte.

Passer la souris dessus pour voir le nom de la station.

Cliquer dessus pour voir les observations et prévisions météorologiques.

Pour changer de carte: cliquez sur les boutons verts avec une croix noire pour zoomer, sur le bouton vert avec un tiret pour effectuer un zoom arrière, ou sur les flèches vertes pour les cartes adjacentes.


METAR-TAF: